createdAt,value
2018-04-12T00:00:05.609Z,12.6
2018-04-12T00:01:07.008Z,12.5
2018-04-12T00:02:08.409Z,12.5
2018-04-12T00:03:09.810Z,12.5
2018-04-12T00:04:11.211Z,12.5
2018-04-12T00:05:12.614Z,12.4
2018-04-12T00:06:14.014Z,12.4
2018-04-12T00:07:15.415Z,12.4
2018-04-12T00:08:16.812Z,12.4
2018-04-12T00:09:18.213Z,12.4
2018-04-12T00:10:19.611Z,12.5
2018-04-12T00:11:21.010Z,12.4
2018-04-12T00:12:22.415Z,12.4
2018-04-12T00:13:23.813Z,12.4
2018-04-12T00:14:25.245Z,12.4
2018-04-12T00:15:26.619Z,12.4
2018-04-12T00:16:28.015Z,12.3
2018-04-12T00:17:29.415Z,12.4
2018-04-12T00:18:30.818Z,12.2
2018-04-12T00:19:32.213Z,12.4
2018-04-12T00:20:33.611Z,12.2
2018-04-12T00:21:35.010Z,12.4
2018-04-12T00:22:36.408Z,12.4
2018-04-12T00:23:37.804Z,12.5
2018-04-12T00:24:39.207Z,12.4
2018-04-12T00:25:40.609Z,12.4
2018-04-12T00:26:42.007Z,12.4
2018-04-12T00:27:43.407Z,12.4
2018-04-12T00:28:44.804Z,12.3
2018-04-12T00:29:46.211Z,12.3
2018-04-12T00:30:47.612Z,12.2
2018-04-12T00:31:49.014Z,12.2
2018-04-12T00:32:50.417Z,12.3
2018-04-12T00:33:51.816Z,12.3
2018-04-12T00:34:53.216Z,12.3
2018-04-12T00:35:54.614Z,12.2
2018-04-12T00:36:56.012Z,12.2
2018-04-12T00:37:57.417Z,12.2
2018-04-12T00:38:58.818Z,12.2
2018-04-12T00:40:00.225Z,12.1
2018-04-12T00:41:01.621Z,12.1
2018-04-12T00:42:03.017Z,12.1
2018-04-12T00:43:04.415Z,12.1
2018-04-12T00:44:05.812Z,12.1
2018-04-12T00:45:07.221Z,12.0
2018-04-12T00:46:08.612Z,12.0
2018-04-12T00:47:10.032Z,12.0
2018-04-12T00:48:11.425Z,12.0
2018-04-12T00:49:12.824Z,12.1
2018-04-12T00:50:14.222Z,12.0
2018-04-12T00:51:15.628Z,12.1
2018-04-12T00:52:17.024Z,12.0
2018-04-12T00:53:18.441Z,11.9
2018-04-12T00:54:19.836Z,12.0
2018-04-12T00:55:21.235Z,12.0
2018-04-12T00:56:22.635Z,12.0
2018-04-12T00:57:24.041Z,11.9
2018-04-12T00:58:25.451Z,11.9
2018-04-12T00:59:26.840Z,11.9
2018-04-12T01:00:28.242Z,11.9
2018-04-12T01:01:29.644Z,12.0
2018-04-12T01:02:31.043Z,11.9
2018-04-12T01:03:32.442Z,11.9
2018-04-12T01:04:33.849Z,11.9
2018-04-12T01:05:35.243Z,11.8
2018-04-12T01:06:36.645Z,11.9
2018-04-12T01:07:38.047Z,11.9
2018-04-12T01:08:39.443Z,11.9
2018-04-12T01:09:40.845Z,11.9
2018-04-12T01:10:42.238Z,11.9
2018-04-12T01:11:43.635Z,11.9
2018-04-12T01:12:45.039Z,11.8
2018-04-12T01:13:46.451Z,11.8
2018-04-12T01:14:47.836Z,11.9
2018-04-12T01:15:49.232Z,11.8
2018-04-12T01:16:50.637Z,11.8
2018-04-12T01:17:52.037Z,11.8
2018-04-12T01:18:53.444Z,11.9
2018-04-12T01:19:54.844Z,11.9
2018-04-12T01:20:56.242Z,11.8
2018-04-12T01:21:57.665Z,11.9
2018-04-12T01:22:59.058Z,11.9
2018-04-12T01:24:00.454Z,11.8
2018-04-12T01:25:01.853Z,11.9
2018-04-12T01:26:03.249Z,11.9
2018-04-12T01:27:04.650Z,11.8
2018-04-12T01:28:06.138Z,11.8
2018-04-12T01:29:07.532Z,11.9
2018-04-12T01:30:08.936Z,11.8
2018-04-12T01:31:10.340Z,11.8
2018-04-12T01:32:11.730Z,11.8
2018-04-12T01:33:13.142Z,11.7
2018-04-12T01:34:14.544Z,11.8
2018-04-12T01:35:15.951Z,11.7
2018-04-12T01:36:17.348Z,11.8
2018-04-12T01:37:18.753Z,11.7
2018-04-12T01:38:20.151Z,11.7
2018-04-12T01:39:21.552Z,11.7
2018-04-12T01:40:22.956Z,11.7
2018-04-12T01:41:24.369Z,11.7
2018-04-12T01:42:25.770Z,11.7
2018-04-12T01:43:27.167Z,11.6
2018-04-12T01:44:28.581Z,11.6
2018-04-12T01:45:29.969Z,11.7
2018-04-12T01:46:31.373Z,11.6
2018-04-12T01:47:32.770Z,11.6
2018-04-12T01:48:34.168Z,11.6
2018-04-12T01:49:35.566Z,11.6
2018-04-12T01:50:36.966Z,11.6
2018-04-12T01:51:38.373Z,11.6
2018-04-12T01:52:39.772Z,11.6
2018-04-12T01:53:41.171Z,11.7
2018-04-12T01:54:42.571Z,11.6
2018-04-12T01:55:43.982Z,11.6
2018-04-12T01:56:45.373Z,11.6
2018-04-12T01:57:46.775Z,11.6
2018-04-12T01:58:48.176Z,11.6
2018-04-12T01:59:49.581Z,11.5
2018-04-12T02:00:50.995Z,11.5
2018-04-12T02:01:52.393Z,11.6
2018-04-12T02:02:53.802Z,11.5
2018-04-12T02:03:55.214Z,11.5
2018-04-12T02:04:56.617Z,11.6
2018-04-12T02:05:58.020Z,11.5
2018-04-12T02:06:59.420Z,11.5
2018-04-12T02:08:00.821Z,11.6
2018-04-12T02:09:02.222Z,11.5
2018-04-12T02:10:03.625Z,11.5
2018-04-12T02:11:05.028Z,11.5
2018-04-12T02:12:06.432Z,11.5
2018-04-12T02:13:07.832Z,11.5
2018-04-12T02:14:09.227Z,11.5
2018-04-12T02:15:10.624Z,11.5
2018-04-12T02:16:12.025Z,11.5
2018-04-12T02:17:13.426Z,11.5
2018-04-12T02:18:14.832Z,11.5
2018-04-12T02:19:16.231Z,11.5
2018-04-12T02:20:17.629Z,11.5
2018-04-12T02:21:19.030Z,11.4
2018-04-12T02:22:20.435Z,11.5
2018-04-12T02:23:21.832Z,11.4
2018-04-12T02:24:23.231Z,11.3
2018-04-12T02:25:24.642Z,11.4
2018-04-12T02:26:26.038Z,11.4
2018-04-12T02:27:27.440Z,11.4
2018-04-12T02:28:28.841Z,11.4
2018-04-12T02:29:30.251Z,11.4
2018-04-12T02:30:31.653Z,11.3
2018-04-12T02:31:33.053Z,11.4
2018-04-12T02:32:34.455Z,11.3
2018-04-12T02:33:35.855Z,11.4
2018-04-12T02:34:37.264Z,11.4
2018-04-12T02:35:38.668Z,11.3
2018-04-12T02:36:40.065Z,11.4
2018-04-12T02:37:41.465Z,11.4
2018-04-12T02:38:42.866Z,11.4
2018-04-12T02:39:44.263Z,11.4
2018-04-12T02:40:45.659Z,11.3
2018-04-12T02:41:47.062Z,11.4
2018-04-12T02:42:48.463Z,11.3
2018-04-12T02:43:49.862Z,11.2
2018-04-12T02:44:51.282Z,11.3
2018-04-12T02:45:52.680Z,11.2
2018-04-12T02:46:54.086Z,11.2
2018-04-12T02:47:55.479Z,11.3
2018-04-12T02:48:56.874Z,11.3
2018-04-12T02:49:58.273Z,11.3
2018-04-12T02:50:59.673Z,11.3
2018-04-12T02:52:01.073Z,11.2
2018-04-12T02:53:02.471Z,11.2
2018-04-12T02:54:03.873Z,11.3
2018-04-12T02:55:05.264Z,11.2
2018-04-12T02:56:06.665Z,11.2
2018-04-12T02:57:08.065Z,11.3
2018-04-12T02:58:09.461Z,11.2
2018-04-12T02:59:10.883Z,11.3
2018-04-12T03:00:12.292Z,11.2
2018-04-12T03:01:13.693Z,11.2
2018-04-12T03:02:15.101Z,11.3
2018-04-12T03:03:16.498Z,11.2
2018-04-12T03:04:17.897Z,11.3
2018-04-12T03:05:19.295Z,11.3
2018-04-12T03:06:20.695Z,11.3
2018-04-12T03:07:22.095Z,11.2
2018-04-12T03:08:23.503Z,11.3
2018-04-12T03:09:24.900Z,11.3
2018-04-12T03:10:26.309Z,11.4
2018-04-12T03:11:27.705Z,11.3
2018-04-12T03:12:29.097Z,11.3
2018-04-12T03:13:30.500Z,11.2
2018-04-12T03:14:31.904Z,11.2
2018-04-12T03:15:33.300Z,11.3
2018-04-12T03:16:34.701Z,11.2
2018-04-12T03:17:36.101Z,11.4
2018-04-12T03:18:37.501Z,11.3
2018-04-12T03:19:38.900Z,11.3
2018-04-12T03:20:40.308Z,11.4
2018-04-12T03:21:41.714Z,11.3
2018-04-12T03:22:43.118Z,11.4
2018-04-12T03:23:44.522Z,11.4
2018-04-12T03:24:45.915Z,11.3
2018-04-12T03:25:47.316Z,11.4
2018-04-12T03:26:48.714Z,11.3
2018-04-12T03:27:50.116Z,11.2
2018-04-12T03:28:51.522Z,11.3
2018-04-12T03:29:52.968Z,11.3
2018-04-12T03:30:54.310Z,11.3
2018-04-12T03:31:55.723Z,11.3
2018-04-12T03:32:57.113Z,11.3
2018-04-12T03:33:58.514Z,11.3
2018-04-12T03:34:59.913Z,11.3
2018-04-12T03:36:01.312Z,11.3
2018-04-12T03:37:02.709Z,11.3
2018-04-12T03:38:04.112Z,11.3
2018-04-12T03:39:05.524Z,11.3
2018-04-12T03:40:06.912Z,11.3
2018-04-12T03:41:08.310Z,11.3
2018-04-12T03:42:09.738Z,11.3
2018-04-12T03:43:11.117Z,11.2
2018-04-12T03:44:12.509Z,11.3
2018-04-12T03:45:13.911Z,11.2
2018-04-12T03:46:15.320Z,11.3
2018-04-12T03:47:16.723Z,11.3
2018-04-12T03:48:18.118Z,11.3
2018-04-12T03:49:19.544Z,11.2
2018-04-12T03:50:20.932Z,11.3
2018-04-12T03:51:22.347Z,11.2
2018-04-12T03:52:23.745Z,11.3
2018-04-12T03:53:25.147Z,11.3
2018-04-12T03:54:26.544Z,11.2
2018-04-12T03:55:27.943Z,11.3
2018-04-12T03:56:29.342Z,11.3
2018-04-12T03:57:30.744Z,11.2
2018-04-12T03:58:32.136Z,11.2
2018-04-12T03:59:33.540Z,11.1
2018-04-12T04:00:34.944Z,11.1
2018-04-12T04:01:36.356Z,11.2
2018-04-12T04:02:37.759Z,11.2
2018-04-12T04:03:39.156Z,11.2
2018-04-12T04:04:40.555Z,11.2
2018-04-12T04:05:41.999Z,11.1
2018-04-12T04:06:43.415Z,11.1
2018-04-12T04:07:44.807Z,11.2
2018-04-12T04:08:46.202Z,11.2
2018-04-12T04:09:47.600Z,11.2
2018-04-12T04:10:48.991Z,11.2
2018-04-12T04:11:50.406Z,11.3
2018-04-12T04:12:51.801Z,11.2
2018-04-12T04:13:53.197Z,11.2
2018-04-12T04:14:54.680Z,11.3
2018-04-12T04:15:56.080Z,11.4
2018-04-12T04:16:57.479Z,11.3
2018-04-12T04:17:58.867Z,11.2
2018-04-12T04:19:00.274Z,11.4
2018-04-12T04:20:01.676Z,11.4
2018-04-12T04:21:03.087Z,11.4
2018-04-12T04:22:04.497Z,11.4
2018-04-12T04:23:05.892Z,11.4
2018-04-12T04:24:07.290Z,11.4
2018-04-12T04:25:08.695Z,11.4
2018-04-12T04:26:10.101Z,11.4
2018-04-12T04:27:11.555Z,11.4
2018-04-12T04:28:12.949Z,11.3
2018-04-12T04:29:14.342Z,11.3
2018-04-12T04:30:18.526Z,11.4
2018-04-12T04:31:19.974Z,11.4
2018-04-12T04:32:21.907Z,11.4
2018-04-12T04:33:23.301Z,11.4
2018-04-12T04:34:24.712Z,11.4
2018-04-12T04:35:30.657Z,11.4
2018-04-12T04:36:32.058Z,11.4
2018-04-12T04:37:33.462Z,11.4
2018-04-12T04:38:34.856Z,11.4
2018-04-12T04:39:36.281Z,11.4
2018-04-12T04:40:37.680Z,11.4
2018-04-12T04:41:39.086Z,11.4
2018-04-12T04:42:40.873Z,11.5
2018-04-12T04:43:42.284Z,11.4
2018-04-12T04:44:43.688Z,11.4
2018-04-12T04:45:45.089Z,11.4
2018-04-12T04:46:46.492Z,11.4
2018-04-12T04:47:47.901Z,11.5
2018-04-12T04:48:49.298Z,11.5
2018-04-12T04:49:50.703Z,11.4
2018-04-12T04:50:52.111Z,11.4
2018-04-12T04:51:53.877Z,11.4
2018-04-12T04:52:55.263Z,11.4
2018-04-12T04:53:56.660Z,11.4
2018-04-12T04:54:58.128Z,11.4
2018-04-12T04:55:59.469Z,11.4
2018-04-12T04:57:00.874Z,11.3
2018-04-12T04:58:02.271Z,11.3
2018-04-12T04:59:03.674Z,11.2
2018-04-12T05:00:05.075Z,11.1
2018-04-12T05:01:06.480Z,11.1
2018-04-12T05:02:07.882Z,11.1
2018-04-12T05:03:09.287Z,11.1
2018-04-12T05:04:10.692Z,11.1
2018-04-12T05:05:12.096Z,11.1
2018-04-12T05:06:13.543Z,11.0
2018-04-12T05:07:14.946Z,11.0
2018-04-12T05:08:16.425Z,11.1
2018-04-12T05:09:17.693Z,11.0
2018-04-12T05:10:20.864Z,11.0
2018-04-12T05:11:22.285Z,11.0
2018-04-12T05:12:23.689Z,10.9
2018-04-12T05:13:25.099Z,10.9
2018-04-12T05:14:26.492Z,10.9
2018-04-12T05:15:27.916Z,10.9
2018-04-12T05:16:29.303Z,10.8
2018-04-12T05:17:31.136Z,10.9
2018-04-12T05:18:32.542Z,10.9
2018-04-12T05:19:33.947Z,10.9
2018-04-12T05:20:35.352Z,10.8
2018-04-12T05:21:36.757Z,10.9
2018-04-12T05:22:38.150Z,10.9
2018-04-12T05:23:39.564Z,10.9
2018-04-12T05:24:40.968Z,10.9
2018-04-12T05:25:42.462Z,10.9
2018-04-12T05:26:43.989Z,10.8
2018-04-12T05:27:45.602Z,10.9
2018-04-12T05:28:47.041Z,10.8
2018-04-12T05:29:48.619Z,10.8
2018-04-12T05:30:50.464Z,10.9
2018-04-12T05:31:51.920Z,10.9
2018-04-12T05:32:53.389Z,11.0
2018-04-12T05:33:54.867Z,11.0
2018-04-12T05:34:56.313Z,11.0
2018-04-12T05:35:57.671Z,11.0
2018-04-12T05:36:59.076Z,11.0
2018-04-12T05:38:00.479Z,11.0
2018-04-12T05:39:01.882Z,11.2
2018-04-12T05:40:03.292Z,11.2
2018-04-12T05:41:04.734Z,11.3
2018-04-12T05:42:06.133Z,11.2
2018-04-12T05:43:07.595Z,11.2
2018-04-12T05:44:08.994Z,11.4
2018-04-12T05:45:10.395Z,11.4
2018-04-12T05:46:11.803Z,11.4
2018-04-12T05:47:13.211Z,11.4
2018-04-12T05:48:14.674Z,11.5
2018-04-12T05:49:16.081Z,11.6
2018-04-12T05:50:17.487Z,11.7
2018-04-12T05:51:18.891Z,11.7
2018-04-12T05:52:20.297Z,11.7
2018-04-12T05:53:21.715Z,11.8
2018-04-12T05:54:23.112Z,11.7
2018-04-12T05:55:24.845Z,11.7
2018-04-12T05:56:26.235Z,11.9
2018-04-12T05:57:27.637Z,11.9
2018-04-12T05:58:29.089Z,12.0
2018-04-12T05:59:30.485Z,12.1
2018-04-12T06:00:31.902Z,12.1
2018-04-12T06:01:33.314Z,12.2
2018-04-12T06:02:34.751Z,12.1
2018-04-12T06:03:36.268Z,12.2
2018-04-12T06:04:37.513Z,12.2
2018-04-12T06:05:38.924Z,12.2
2018-04-12T06:06:41.752Z,12.3
2018-04-12T06:07:42.825Z,12.4
2018-04-12T06:08:44.233Z,12.4
2018-04-12T06:09:45.648Z,12.5
2018-04-12T06:10:47.051Z,12.5
2018-04-12T06:11:48.455Z,12.7
2018-04-12T06:12:49.912Z,12.7
2018-04-12T06:13:51.332Z,12.6
2018-04-12T06:14:52.742Z,12.7
2018-04-12T06:15:54.201Z,12.6
2018-04-12T06:16:55.885Z,12.6
2018-04-12T06:17:57.325Z,12.5
2018-04-12T06:18:58.731Z,12.6
2018-04-12T06:20:00.137Z,12.6
2018-04-12T06:21:01.674Z,12.6
2018-04-12T06:22:03.073Z,12.6
2018-04-12T06:23:04.499Z,12.7
2018-04-12T06:24:05.924Z,12.8
2018-04-12T06:25:07.360Z,12.6
2018-04-12T06:26:08.796Z,12.5
2018-04-12T06:27:10.192Z,12.5
2018-04-12T06:28:11.595Z,12.5
2018-04-12T06:29:13.014Z,12.3
2018-04-12T06:30:14.407Z,12.4
2018-04-12T06:31:15.807Z,12.5
2018-04-12T06:32:17.208Z,12.5
2018-04-12T06:33:18.617Z,12.6
2018-04-12T06:34:20.018Z,12.7
2018-04-12T06:35:21.425Z,12.8
2018-04-12T06:36:22.836Z,13.0
2018-04-12T06:37:24.241Z,13.1
2018-04-12T06:38:25.653Z,13.2
2018-04-12T06:39:27.056Z,13.5
2018-04-12T06:40:28.479Z,13.5
2018-04-12T06:41:29.892Z,13.6
2018-04-12T06:42:31.342Z,13.4
2018-04-12T06:43:32.774Z,13.2
2018-04-12T06:44:34.210Z,13.1
2018-04-12T06:45:35.671Z,13.1
2018-04-12T06:46:37.082Z,13.0
2018-04-12T06:47:38.553Z,13.0
2018-04-12T06:48:39.964Z,12.7
2018-04-12T06:49:41.367Z,12.7
2018-04-12T06:50:42.792Z,12.8
2018-04-12T06:51:44.202Z,12.7
2018-04-12T06:52:45.621Z,12.9
2018-04-12T06:53:47.034Z,13.0
2018-04-12T06:54:48.462Z,13.0
2018-04-12T06:55:49.894Z,13.2
2018-04-12T06:56:51.348Z,13.5
2018-04-12T06:57:52.779Z,13.8
2018-04-12T06:58:54.203Z,14.2
2018-04-12T06:59:55.611Z,14.3
2018-04-12T07:00:57.020Z,14.4
2018-04-12T07:01:58.421Z,14.4
2018-04-12T07:02:59.836Z,14.6
2018-04-12T07:04:01.240Z,14.7
2018-04-12T07:05:02.655Z,14.8
2018-04-12T07:06:04.068Z,15.0
2018-04-12T07:07:05.515Z,15.1
2018-04-12T07:08:07.386Z,15.3
2018-04-12T07:09:08.777Z,15.5
2018-04-12T07:10:10.739Z,15.5
2018-04-12T07:11:12.386Z,15.5
2018-04-12T07:12:14.560Z,15.2
2018-04-12T07:13:16.176Z,14.9
2018-04-12T07:14:17.945Z,15.0
2018-04-12T07:15:19.565Z,15.2
2018-04-12T07:16:21.112Z,15.0
2018-04-12T07:17:23.461Z,15.2
2018-04-12T07:18:25.089Z,15.3
2018-04-12T07:19:26.595Z,15.3
2018-04-12T07:20:28.143Z,15.3
2018-04-12T07:21:29.788Z,15.3
2018-04-12T07:22:31.301Z,15.4
2018-04-12T07:23:33.121Z,15.5
2018-04-12T07:24:34.728Z,15.6
2018-04-12T07:25:36.275Z,15.4
2018-04-12T07:26:37.981Z,15.5
2018-04-12T07:27:39.506Z,15.5
2018-04-12T07:28:41.063Z,15.4
2018-04-12T07:29:43.239Z,15.3
2018-04-12T07:30:47.998Z,15.2
2018-04-12T07:31:49.475Z,15.2
2018-04-12T07:32:51.048Z,15.3
2018-04-12T07:33:54.391Z,15.3
2018-04-12T07:34:56.851Z,15.3
2018-04-12T07:35:58.399Z,15.3
2018-04-12T07:36:59.903Z,15.3
2018-04-12T07:38:01.570Z,15.3
2018-04-12T07:39:03.373Z,15.3
2018-04-12T07:40:04.900Z,15.3
2018-04-12T07:41:06.899Z,15.3
2018-04-12T07:42:08.981Z,15.2
2018-04-12T07:43:10.619Z,15.3
2018-04-12T07:44:12.419Z,15.2
2018-04-12T07:45:14.262Z,15.2
2018-04-12T07:46:16.229Z,15.2
2018-04-12T07:47:18.011Z,15.2
2018-04-12T07:48:19.648Z,15.1
2018-04-12T07:49:21.296Z,15.2
2018-04-12T07:50:23.077Z,15.2
2018-04-12T07:51:26.266Z,15.2
2018-04-12T07:52:31.368Z,15.3
2018-04-12T07:53:33.707Z,15.1
2018-04-12T07:54:36.604Z,15.2
2018-04-12T07:55:39.058Z,15.1
2018-04-12T07:56:41.814Z,15.3
2018-04-12T07:57:43.501Z,15.2
2018-04-12T07:58:45.794Z,15.2
2018-04-12T07:59:47.660Z,15.3
2018-04-12T08:00:49.646Z,15.3
2018-04-12T08:01:52.802Z,15.3
2018-04-12T08:02:54.765Z,15.4
2018-04-12T08:03:56.390Z,15.5
2018-04-12T08:04:58.057Z,15.7
2018-04-12T08:05:59.785Z,16.2
2018-04-12T08:07:01.614Z,16.2
2018-04-12T08:08:03.332Z,16.3
2018-04-12T08:09:05.021Z,16.5
2018-04-12T08:10:06.733Z,16.8
2018-04-12T08:11:09.177Z,16.9
2018-04-12T08:12:20.253Z,16.7
2018-04-12T08:13:21.395Z,16.9
2018-04-12T08:14:23.634Z,17.1
2018-04-12T08:15:25.571Z,16.9
2018-04-12T08:16:28.895Z,16.9
2018-04-12T08:17:31.046Z,16.6
2018-04-12T08:18:32.889Z,16.5
2018-04-12T08:19:35.051Z,16.1
2018-04-12T08:20:41.811Z,16.3
2018-04-12T08:21:45.132Z,16.6
2018-04-12T08:22:48.945Z,17.1
2018-04-12T08:23:56.455Z,17.3
2018-04-12T08:25:03.293Z,17.1
2018-04-12T08:26:40.346Z,17.3
2018-04-12T08:28:10.151Z,17.0
2018-04-12T08:29:13.621Z,17.1
2018-04-12T08:30:20.931Z,17.4
2018-04-12T08:31:31.611Z,17.3
2018-04-12T08:32:36.106Z,17.4
2018-04-12T08:33:38.397Z,17.9
2018-04-12T08:34:46.805Z,18.2
2018-04-12T08:35:49.439Z,18.6
2018-04-12T08:36:51.082Z,18.4
2018-04-12T08:37:52.754Z,18.0
2018-04-12T08:38:59.901Z,18.1
2018-04-12T08:40:01.888Z,18.5
2018-04-12T08:41:03.718Z,18.6
2018-04-12T08:42:20.943Z,18.9
2018-04-12T08:43:22.278Z,19.1
2018-04-12T08:44:24.672Z,19.2
2018-04-12T08:45:26.475Z,19.3
2018-04-12T08:46:28.262Z,19.1
2018-04-12T08:47:30.896Z,18.8
2018-04-12T08:48:33.460Z,18.8
2018-04-12T08:49:36.313Z,18.9
2018-04-12T08:51:09.486Z,19.1
2018-04-12T08:52:13.162Z,18.9
2018-04-12T08:54:53.337Z,18.4
2018-04-12T08:59:40.670Z,19.0
2018-04-12T09:01:24.936Z,19.3
2018-04-12T09:02:50.091Z,19.9
2018-04-12T09:03:51.725Z,20.3
2018-04-12T09:04:53.451Z,20.8
2018-04-12T09:05:56.390Z,21.1
2018-04-12T09:06:58.668Z,21.3
2018-04-12T09:08:01.993Z,21.5
2018-04-12T09:09:29.270Z,21.5
2018-04-12T09:10:30.836Z,22.0
2018-04-12T09:11:32.363Z,22.2
2018-04-12T09:12:33.879Z,22.6
2018-04-12T09:13:35.367Z,22.8
2018-04-12T09:14:36.897Z,22.9
2018-04-12T09:15:39.394Z,23.1
2018-04-12T09:16:41.269Z,23.2
2018-04-12T09:17:42.969Z,23.3
2018-04-12T09:19:54.749Z,23.1
2018-04-12T09:20:57.832Z,23.2
2018-04-12T09:22:38.782Z,23.5
2018-04-12T09:23:40.150Z,23.5
2018-04-12T09:24:41.557Z,23.3
2018-04-12T09:25:42.971Z,23.1
2018-04-12T09:26:44.418Z,22.7
2018-04-12T09:27:45.887Z,22.8
2018-04-12T09:28:47.279Z,23.0
2018-04-12T09:29:48.706Z,23.3
2018-04-12T09:30:50.184Z,23.1
2018-04-12T09:31:51.735Z,22.9
2018-04-12T09:32:53.361Z,23.3
2018-04-12T09:33:55.055Z,23.6
2018-04-12T09:34:56.713Z,23.7
2018-04-12T09:35:58.270Z,23.7
2018-04-12T09:36:59.709Z,23.1
2018-04-12T09:38:01.165Z,22.2
2018-04-12T09:39:02.604Z,22.4
2018-04-12T09:40:04.085Z,22.8
2018-04-12T09:41:05.558Z,23.2
2018-04-12T09:42:07.133Z,23.4
2018-04-12T09:43:08.609Z,23.5
2018-04-12T09:44:10.269Z,23.8
2018-04-12T09:45:11.861Z,23.8
2018-04-12T09:46:13.294Z,24.1
2018-04-12T09:47:14.769Z,24.4
2018-04-12T09:48:16.231Z,24.7
2018-04-12T09:49:17.777Z,24.8
2018-04-12T09:50:19.163Z,25.0
2018-04-12T09:51:20.631Z,25.0
2018-04-12T09:52:22.059Z,25.0
2018-04-12T09:53:23.559Z,25.1
2018-04-12T09:54:25.081Z,24.4
2018-04-12T09:55:26.586Z,24.6
2018-04-12T09:56:28.042Z,24.8
2018-04-12T09:57:29.561Z,25.1
2018-04-12T09:58:31.053Z,24.4
2018-04-12T09:59:32.548Z,24.6
2018-04-12T10:00:34.018Z,24.8
2018-04-12T10:01:35.453Z,25.1
2018-04-12T10:02:36.949Z,25.4
2018-04-12T10:03:38.464Z,25.1
2018-04-12T10:04:39.905Z,24.6
2018-04-12T10:05:41.355Z,23.8
2018-04-12T10:06:42.829Z,24.0
2018-04-12T10:07:44.315Z,24.3
2018-04-12T10:08:45.841Z,23.8
2018-04-12T10:09:47.314Z,24.2
2018-04-12T10:10:48.841Z,24.4
2018-04-12T10:11:50.321Z,24.8
2018-04-12T10:12:51.817Z,25.0
2018-04-12T10:13:53.305Z,25.3
2018-04-12T10:14:54.736Z,25.5
2018-04-12T10:15:56.171Z,25.8
2018-04-12T10:16:57.687Z,26.1
2018-04-12T10:17:59.128Z,26.4
2018-04-12T10:19:00.565Z,26.4
2018-04-12T10:20:02.028Z,26.5
2018-04-12T10:21:03.453Z,26.6
2018-04-12T10:22:04.875Z,26.5
2018-04-12T10:23:06.302Z,26.7
2018-04-12T10:24:07.751Z,25.9
2018-04-12T10:25:09.231Z,25.5
2018-04-12T10:26:10.756Z,25.4
2018-04-12T10:27:12.207Z,25.4
2018-04-12T10:28:13.660Z,25.7
2018-04-12T10:29:15.126Z,26.1
2018-04-12T10:30:16.554Z,26.6
2018-04-12T10:31:18.016Z,27.1
2018-04-12T10:32:19.467Z,27.2
2018-04-12T10:33:20.965Z,27.2
2018-04-12T10:34:22.421Z,27.3
2018-04-12T10:35:23.893Z,27.1
2018-04-12T10:36:25.434Z,27.4
2018-04-12T10:37:26.912Z,27.4
2018-04-12T10:38:28.388Z,27.7
2018-04-12T10:39:29.883Z,27.6
2018-04-12T10:40:31.299Z,27.9
2018-04-12T10:41:32.821Z,28.1
2018-04-12T10:42:34.314Z,28.6
2018-04-12T10:43:35.772Z,28.9
2018-04-12T10:44:37.312Z,29.4
2018-04-12T10:45:38.748Z,29.4
2018-04-12T10:46:40.251Z,29.9
2018-04-12T10:47:41.684Z,30.3
2018-04-12T10:48:43.283Z,31.0
2018-04-12T10:49:44.767Z,31.5
2018-04-12T10:50:46.213Z,32.0
2018-04-12T10:51:47.668Z,32.6
2018-04-12T10:52:49.121Z,33.1
2018-04-12T10:53:50.720Z,33.3
2018-04-12T10:54:52.250Z,33.9
2018-04-12T10:55:53.829Z,34.4
2018-04-12T10:56:55.298Z,34.9
2018-04-12T10:57:56.731Z,35.3
2018-04-12T10:58:58.208Z,35.5
2018-04-12T10:59:59.728Z,35.7
2018-04-12T11:01:01.194Z,35.7
2018-04-12T11:02:02.665Z,35.9
2018-04-12T11:03:04.103Z,36.2
2018-04-12T11:04:05.594Z,35.1
2018-04-12T11:05:07.071Z,35.3
2018-04-12T11:06:08.584Z,35.4
2018-04-12T11:07:10.032Z,35.6
2018-04-12T11:08:11.515Z,35.1
2018-04-12T11:09:12.972Z,35.6
2018-04-12T11:10:14.483Z,35.9
2018-04-12T11:11:16.009Z,36.2
2018-04-12T11:12:17.503Z,36.7
2018-04-12T11:13:18.982Z,36.9
2018-04-12T11:14:20.552Z,37.0
2018-04-12T11:15:22.057Z,36.6
2018-04-12T11:16:23.521Z,36.3
2018-04-12T11:17:24.962Z,36.0
2018-04-12T11:18:26.449Z,35.9
2018-04-12T11:19:27.938Z,35.5
2018-04-12T11:20:29.406Z,35.2
2018-04-12T11:21:31.050Z,35.6
2018-04-12T11:22:32.576Z,34.2
2018-04-12T11:23:34.021Z,33.2
2018-04-12T11:24:35.563Z,32.6
2018-04-12T11:25:37.056Z,31.5
2018-04-12T11:26:38.563Z,30.5
2018-04-12T11:27:40.126Z,30.2
2018-04-12T11:28:41.578Z,30.6
2018-04-12T11:29:43.038Z,30.3
2018-04-12T11:30:44.536Z,31.8
2018-04-12T11:31:46.091Z,31.8
2018-04-12T11:32:47.610Z,32.4
2018-04-12T11:33:53.424Z,33.0
2018-04-12T11:34:54.922Z,34.4
2018-04-12T11:35:56.354Z,35.3
2018-04-12T11:36:57.852Z,35.8
2018-04-12T11:37:59.301Z,35.7
2018-04-12T11:39:00.754Z,35.9
2018-04-12T11:40:02.300Z,35.1
2018-04-12T11:41:03.742Z,34.5
2018-04-12T11:42:05.209Z,33.5
2018-04-12T11:43:06.661Z,31.8
2018-04-12T11:44:08.159Z,31.2
2018-04-12T11:45:09.647Z,31.5
2018-04-12T11:46:11.108Z,32.6
2018-04-12T11:47:12.543Z,31.5
2018-04-12T11:48:14.121Z,30.9
2018-04-12T11:49:15.641Z,29.9
2018-04-12T11:50:17.114Z,29.0
2018-04-12T11:51:18.618Z,28.4
2018-04-12T11:52:20.087Z,27.5
2018-04-12T11:53:21.548Z,27.1
2018-04-12T11:54:23.023Z,26.8
2018-04-12T11:55:24.503Z,26.7
2018-04-12T11:56:25.941Z,26.5
2018-04-12T11:57:27.483Z,26.5
2018-04-12T11:58:28.936Z,26.4
2018-04-12T11:59:30.431Z,26.8
2018-04-12T12:00:31.890Z,27.1
2018-04-12T12:01:33.366Z,26.8
2018-04-12T12:02:34.814Z,26.7
2018-04-12T12:03:36.292Z,26.6
2018-04-12T12:04:37.768Z,26.5
2018-04-12T12:05:39.243Z,26.5
2018-04-12T12:06:40.754Z,26.5
2018-04-12T12:07:42.225Z,26.3
2018-04-12T12:08:43.683Z,26.2
2018-04-12T12:09:45.165Z,26.2
2018-04-12T12:10:46.635Z,26.3
2018-04-12T12:11:48.143Z,26.6
2018-04-12T12:12:49.576Z,27.4
2018-04-12T12:13:51.126Z,28.3
2018-04-12T12:14:52.650Z,29.0
2018-04-12T12:15:54.118Z,30.1
2018-04-12T12:16:55.634Z,30.9
2018-04-12T12:17:57.197Z,31.2
2018-04-12T12:18:58.650Z,31.2
2018-04-12T12:20:00.140Z,32.2
2018-04-12T12:21:01.640Z,32.5
2018-04-12T12:22:03.112Z,33.2
2018-04-12T12:23:04.666Z,33.1
2018-04-12T12:24:06.193Z,32.9
2018-04-12T12:25:07.755Z,33.2
2018-04-12T12:26:09.228Z,33.2
2018-04-12T12:27:10.789Z,33.5
2018-04-12T12:28:12.321Z,33.7
2018-04-12T12:29:13.857Z,34.8
2018-04-12T12:30:15.399Z,35.3
2018-04-12T12:31:16.828Z,34.9
2018-04-12T12:32:18.421Z,34.3
2018-04-12T12:33:19.935Z,34.1
2018-04-12T12:34:21.438Z,33.3
2018-04-12T12:35:22.919Z,32.5
2018-04-12T12:36:24.387Z,32.4
2018-04-12T12:37:25.869Z,32.4
2018-04-12T12:38:27.340Z,32.1
2018-04-12T12:39:28.840Z,32.1
2018-04-12T12:40:30.377Z,31.5
2018-04-12T12:41:31.869Z,31.0
2018-04-12T12:42:33.353Z,30.7
2018-04-12T12:43:34.832Z,30.2
2018-04-12T12:44:36.355Z,29.9
2018-04-12T12:45:37.815Z,30.6
2018-04-12T12:46:39.288Z,31.2
2018-04-12T12:47:40.757Z,30.9
2018-04-12T12:48:42.230Z,31.0
2018-04-12T12:49:43.692Z,31.9
2018-04-12T12:50:45.250Z,32.8
2018-04-12T12:51:46.683Z,32.6
2018-04-12T12:52:48.185Z,33.1
2018-04-12T12:53:49.684Z,33.4
2018-04-12T12:54:51.182Z,33.3
2018-04-12T12:55:52.791Z,32.7
2018-04-12T12:56:54.191Z,32.7
2018-04-12T12:57:55.676Z,32.6
2018-04-12T12:58:57.131Z,32.4
2018-04-12T12:59:58.627Z,32.4
2018-04-12T13:01:00.169Z,32.0
2018-04-12T13:02:01.605Z,32.9
2018-04-12T13:03:03.063Z,34.1
2018-04-12T13:04:04.566Z,34.9
2018-04-12T13:05:06.073Z,35.3
2018-04-12T13:06:07.532Z,34.1
2018-04-12T13:07:09.006Z,34.0
2018-04-12T13:08:10.461Z,33.6
2018-04-12T13:09:11.996Z,33.1
2018-04-12T13:10:13.514Z,32.5
2018-04-12T13:11:14.987Z,30.8
2018-04-12T13:12:16.434Z,30.3
2018-04-12T13:13:17.887Z,29.6
2018-04-12T13:14:19.365Z,29.7
2018-04-12T13:15:20.935Z,29.8
2018-04-12T13:16:22.389Z,29.7
2018-04-12T13:17:23.938Z,29.6
2018-04-12T13:18:25.394Z,29.6
2018-04-12T13:19:26.870Z,29.5
2018-04-12T13:20:28.338Z,28.9
2018-04-12T13:21:29.841Z,29.0
2018-04-12T13:22:31.298Z,29.6
2018-04-12T13:23:32.741Z,31.0
2018-04-12T13:24:34.178Z,31.1
2018-04-12T13:25:35.742Z,32.0
2018-04-12T13:26:37.209Z,32.6
2018-04-12T13:27:38.696Z,32.7
2018-04-12T13:28:40.242Z,32.8
2018-04-12T13:29:41.706Z,33.2
2018-04-12T13:30:43.236Z,33.6
2018-04-12T13:31:44.712Z,32.7
2018-04-12T13:32:46.156Z,32.4
2018-04-12T13:33:47.636Z,31.5
2018-04-12T13:34:49.129Z,31.8
2018-04-12T13:35:50.632Z,31.1
2018-04-12T13:36:52.154Z,31.5
2018-04-12T13:37:53.637Z,32.1
2018-04-12T13:38:55.131Z,32.5
2018-04-12T13:39:56.614Z,33.3
2018-04-12T13:40:58.055Z,33.1
2018-04-12T13:41:59.540Z,33.1
2018-04-12T13:43:01.037Z,33.7
2018-04-12T13:44:02.491Z,34.2
2018-04-12T13:45:03.980Z,34.1
2018-04-12T13:46:05.487Z,35.2
2018-04-12T13:47:07.005Z,36.4
2018-04-12T13:48:08.503Z,35.3
2018-04-12T13:49:09.954Z,34.4
2018-04-12T13:50:11.472Z,34.3